Time;durP1;ratioP1;P1;durP2;ratioP2;P2;SDS_P1;SDS_P2;PMS_P1;PMS_P2;Temp;Humidity;BMP_temperature;BMP_pressure;BME280_temperature;BME280_humidity;BME280_pressure;Samples;Min_cycle;Max_cycle;Signal;HPM_P1;HPM_P2
2023/04/27 00:00:13;;;;;;;5.23;2.43;;;;;;;9.52;41.54;94594.63;5026147;28;20197;-67
2023/04/27 00:02:39;;;;;;;6.07;2.93;;;;;;;9.31;42.02;94584.50;5031568;28;20234;-67
2023/04/27 00:05:05;;;;;;;4.50;2.67;;;;;;;9.36;41.99;94586.66;5034771;28;20221;-68
2023/04/27 00:07:31;;;;;;;5.53;2.70;;;;;;;9.39;41.90;94584.53;5025335;28;20230;-68
2023/04/27 00:09:56;;;;;;;7.87;2.60;;;;;;;9.45;41.69;94594.41;5029305;28;20181;-68
2023/04/27 00:12:22;;;;;;;6.13;2.53;;;;;;;9.23;42.31;94598.38;5035165;28;20230;-67
2023/04/27 00:14:48;;;;;;;6.60;3.20;;;;;;;9.20;42.14;94600.50;5032833;28;20286;-68
2023/04/27 00:17:13;;;;;;;5.47;2.83;;;;;;;9.19;42.16;94594.41;5031892;28;20233;-67
2023/04/27 00:19:40;;;;;;;4.47;2.33;;;;;;;9.23;41.88;94601.00;5034301;28;20220;-67
2023/04/27 00:22:06;;;;;;;5.20;2.50;;;;;;;9.18;42.04;94612.94;5031440;28;20229;-67
2023/04/27 00:24:32;;;;;;;5.33;2.53;;;;;;;9.34;41.64;94606.97;5030071;28;20274;-67
2023/04/27 00:26:57;;;;;;;6.73;2.80;;;;;;;9.12;42.14;94611.75;5041156;28;20222;-67
2023/04/27 00:29:23;;;;;;;5.40;2.30;;;;;;;9.25;41.85;94608.72;5031989;28;20213;-67
2023/04/27 00:31:48;;;;;;;6.30;2.30;;;;;;;8.87;42.58;94610.72;5027349;28;20209;-67
2023/04/27 00:34:13;;;;;;;12.40;2.73;;;;;;;9.03;42.23;94605.63;5031495;28;20221;-67
2023/04/27 00:36:39;;;;;;;5.13;2.80;;;;;;;8.91;42.43;94604.22;5032222;28;20497;-67
2023/04/27 00:39:05;;;;;;;6.87;2.63;;;;;;;9.05;42.19;94618.56;5039432;28;20210;-68
2023/04/27 00:41:31;;;;;;;5.23;2.50;;;;;;;8.88;42.87;94606.31;5034114;28;20226;-68
2023/04/27 00:43:57;;;;;;;10.40;2.60;;;;;;;8.93;42.37;94609.31;5027946;28;20294;-68
2023/04/27 00:46:23;;;;;;;4.70;2.30;;;;;;;8.82;42.60;94610.34;5028620;28;20309;-68
2023/04/27 00:48:49;;;;;;;6.43;2.43;;;;;;;8.82;42.94;94612.97;5042692;28;20205;-68
2023/04/27 00:51:15;;;;;;;4.30;2.33;;;;;;;8.92;42.26;94612.91;5035168;28;20193;-68
2023/04/27 00:53:41;;;;;;;5.40;2.57;;;;;;;8.92;42.21;94612.91;5029552;28;20213;-68
2023/04/27 00:56:06;;;;;;;9.20;2.40;;;;;;;8.78;42.49;94609.84;5028419;28;20214;-68
2023/04/27 00:58:32;;;;;;;5.40;2.33;;;;;;;8.76;42.63;94621.44;5027650;28;20221;-69
2023/04/27 01:00:59;;;;;;;6.40;2.80;;;;;;;8.81;42.19;94608.72;5030213;28;20267;-69
2023/04/27 01:03:25;;;;;;;6.33;2.43;;;;;;;8.59;43.20;94617.84;5033085;28;20308;-69
2023/04/27 01:05:50;;;;;;;8.27;3.03;;;;;;;8.61;42.66;94619.34;5032377;28;20229;-68
2023/04/27 01:08:17;;;;;;;5.10;2.60;;;;;;;8.52;43.38;94622.84;5031215;28;20237;-69
2023/04/27 01:10:43;;;;;;;4.97;2.80;;;;;;;8.53;43.32;94624.53;5029466;28;20236;-69
2023/04/27 01:13:08;;;;;;;8.60;2.63;;;;;;;8.61;42.79;94618.53;5023803;28;20229;-69
2023/04/27 01:15:33;;;;;;;5.67;2.60;;;;;;;8.57;42.86;94635.50;5028094;28;20201;-69
2023/04/27 01:18:00;;;;;;;6.40;2.60;;;;;;;8.47;43.32;94627.72;5028847;28;20228;-69
2023/04/27 01:20:29;;;;;;;6.50;2.60;;;;;;;8.53;43.42;94629.75;5042660;28;20222;-69
2023/04/27 01:22:55;;;;;;;4.57;2.80;;;;;;;8.48;43.34;94632.00;5027831;28;20214;-69
2023/04/27 01:25:21;;;;;;;5.80;2.80;;;;;;;8.47;43.76;94632.13;5029114;28;20248;-69
2023/04/27 01:27:46;;;;;;;6.10;2.50;;;;;;;8.45;43.58;94642.78;5030981;28;20236;-69
2023/04/27 01:30:12;;;;;;;6.53;2.50;;;;;;;8.39;43.54;94638.97;5029472;28;20193;-68
2023/04/27 01:32:38;;;;;;;7.47;2.70;;;;;;;8.34;43.71;94649.03;5032031;28;20218;-69
2023/04/27 01:35:04;;;;;;;4.13;2.53;;;;;;;8.23;43.93;94643.97;5024726;28;20228;-69
2023/04/27 01:37:30;;;;;;;6.23;2.40;;;;;;;8.24;43.93;94629.09;5036315;28;20221;-69
2023/04/27 01:39:55;;;;;;;7.80;2.60;;;;;;;8.19;43.91;94634.75;5030273;28;20259;-68
2023/04/27 01:42:21;;;;;;;4.30;2.47;;;;;;;8.38;43.33;94639.06;5031584;28;20200;-68
2023/04/27 01:44:47;;;;;;;6.37;2.47;;;;;;;8.35;43.69;94641.97;5024801;28;20226;-69
2023/04/27 01:47:14;;;;;;;5.83;2.50;;;;;;;8.20;43.63;94644.25;5031247;28;20320;-69
2023/04/27 01:49:40;;;;;;;5.53;2.20;;;;;;;8.24;43.71;94644.81;5028428;28;20317;-69
2023/04/27 01:52:05;;;;;;;5.17;2.50;;;;;;;8.12;43.96;94649.41;5028908;28;20241;-69
2023/04/27 01:54:31;;;;;;;6.10;2.83;;;;;;;8.16;43.65;94648.16;5025647;28;20186;-68
2023/04/27 01:56:57;;;;;;;3.63;2.40;;;;;;;8.24;43.93;94642.19;5025964;28;20247;-68
2023/04/27 01:59:23;;;;;;;6.47;2.93;;;;;;;8.41;42.84;94651.91;5041660;28;20221;-69
2023/04/27 02:01:48;;;;;;;8.30;2.87;;;;;;;8.10;43.89;94651.34;5042604;28;20237;-68
2023/04/27 02:04:14;;;;;;;6.73;2.40;;;;;;;8.23;43.34;94636.09;5032308;28;20232;-68
2023/04/27 02:06:40;;;;;;;6.33;2.63;;;;;;;8.28;43.15;94639.09;5029118;28;20221;-69
2023/04/27 02:09:05;;;;;;;5.77;2.67;;;;;;;8.19;43.12;94642.63;5039235;28;20273;-68
2023/04/27 02:11:31;;;;;;;6.23;3.23;;;;;;;8.00;44.03;94642.72;5031507;28;20309;-68
2023/04/27 02:13:56;;;;;;;4.57;2.30;;;;;;;8.34;42.96;94651.63;5029094;28;20222;-68
2023/04/27 02:16:22;;;;;;;7.50;2.53;;;;;;;8.31;42.96;94646.69;5037052;28;20218;-69
2023/04/27 02:18:48;;;;;;;5.07;2.80;;;;;;;8.01;43.46;94639.94;5029858;28;20204;-69
2023/04/27 02:21:13;;;;;;;8.47;2.40;;;;;;;8.13;43.68;94645.84;5026401;28;20189;-68
2023/04/27 02:23:39;;;;;;;7.13;2.60;;;;;;;8.10;43.25;94654.81;5033153;28;20221;-69
2023/04/27 02:26:05;;;;;;;6.17;2.80;;;;;;;8.22;43.30;94654.59;5044220;28;20234;-68
2023/04/27 02:28:31;;;;;;;9.60;2.90;;;;;;;7.91;43.66;94649.63;5033208;28;20283;-67
2023/04/27 02:30:57;;;;;;;4.20;2.30;;;;;;;8.03;43.61;94650.28;5033070;28;20193;-67
2023/04/27 02:33:22;;;;;;;5.63;2.83;;;;;;;8.21;42.99;94660.81;5034974;28;20345;-68
2023/04/27 02:35:47;;;;;;;5.50;2.60;;;;;;;8.05;43.33;94658.81;5027034;28;20244;-67
2023/04/27 02:38:13;;;;;;;5.27;2.50;;;;;;;8.06;43.47;94652.63;5029886;28;20305;-68
2023/04/27 02:40:38;;;;;;;9.67;2.43;;;;;;;8.15;43.08;94651.72;5032841;28;20225;-68
2023/04/27 02:43:04;;;;;;;5.70;2.83;;;;;;;8.20;42.77;94662.59;5030097;28;20229;-68
2023/04/27 02:45:29;;;;;;;4.67;2.20;;;;;;;8.24;42.77;94650.88;5031741;28;20198;-68
2023/04/27 02:47:56;;;;;;;5.03;2.20;;;;;;;8.03;43.17;94658.16;5028945;28;20229;-68
2023/04/27 02:50:21;;;;;;;4.93;2.60;;;;;;;8.13;43.12;94666.78;5040294;28;20221;-70
2023/04/27 02:52:46;;;;;;;6.43;2.40;;;;;;;8.12;42.99;94657.25;5032165;28;20221;-69
2023/04/27 02:55:13;;;;;;;5.30;2.73;;;;;;;8.20;42.77;94656.53;5031505;28;20221;-69
2023/04/27 02:57:38;;;;;;;8.37;2.80;;;;;;;8.18;42.85;94651.47;5030588;28;20268;-69
2023/04/27 03:00:05;;;;;;;7.60;3.00;;;;;;;8.24;42.48;94666.59;5029796;28;20336;-69
2023/04/27 03:02:31;;;;;;;8.73;2.70;;;;;;;8.21;42.66;94666.06;5032537;28;20241;-69
2023/04/27 03:04:58;;;;;;;6.83;2.80;;;;;;;8.12;42.88;94665.94;5023040;28;20221;-69
2023/04/27 03:07:23;;;;;;;5.20;2.77;;;;;;;8.18;42.66;94661.94;5029269;28;20225;-69
2023/04/27 03:09:48;;;;;;;7.73;2.47;;;;;;;8.22;42.70;94668.50;5024662;28;20189;-69
2023/04/27 03:12:14;;;;;;;5.77;2.67;;;;;;;8.24;42.38;94673.63;5033556;28;20215;-69
2023/04/27 03:14:39;;;;;;;3.47;2.50;;;;;;;8.21;42.79;94672.13;5035410;28;20220;-69
2023/04/27 03:17:05;;;;;;;6.47;2.60;;;;;;;8.38;42.14;94673.94;5023962;28;20229;-69
2023/04/27 03:19:30;;;;;;;5.33;2.70;;;;;;;8.16;42.44;94672.53;5031669;28;20252;-69
2023/04/27 03:21:56;;;;;;;4.70;2.77;;;;;;;8.01;43.32;94675.78;5031732;28;20190;-69
2023/04/27 03:24:24;;;;;;;7.47;2.60;;;;;;;8.12;42.91;94683.44;5033421;28;20197;-69
2023/04/27 03:26:50;;;;;;;5.77;2.80;;;;;;;8.12;42.67;94680.81;5032756;28;20229;-69
2023/04/27 03:29:15;;;;;;;5.70;2.83;;;;;;;8.17;42.56;94684.66;5032348;28;20210;-69
2023/04/27 03:31:41;;;;;;;3.67;2.40;;;;;;;8.12;42.65;94683.44;5032565;28;20225;-69
2023/04/27 03:34:06;;;;;;;5.87;2.90;;;;;;;8.08;42.17;94682.91;5031226;28;20217;-69
2023/04/27 03:36:32;;;;;;;8.20;2.80;;;;;;;8.03;42.41;94681.72;5034756;28;20195;-69
2023/04/27 03:38:57;;;;;;;5.47;2.60;;;;;;;8.16;42.21;94692.69;5032011;28;20229;-70
2023/04/27 03:41:22;;;;;;;6.00;2.63;;;;;;;8.17;42.25;94707.41;5034807;28;20228;-67
2023/04/27 03:43:49;;;;;;;6.93;3.00;;;;;;;7.96;42.52;94689.28;5019857;28;20233;-70
2023/04/27 03:46:15;;;;;;;7.97;2.87;;;;;;;7.97;42.33;94690.97;5013449;28;20252;-67
2023/04/27 03:48:42;;;;;;;5.27;2.63;;;;;;;7.94;42.30;94697.31;5019737;28;20186;-69
2023/04/27 03:51:08;;;;;;;7.03;2.67;;;;;;;7.97;42.39;94696.19;5030427;28;20189;-69
2023/04/27 03:53:33;;;;;;;5.93;2.77;;;;;;;8.12;42.03;94704.41;5032843;28;20233;-67
2023/04/27 03:56:02;;;;;;;3.17;2.50;;;;;;;7.99;42.62;94698.66;5030198;28;20228;-66
2023/04/27 03:58:27;;;;;;;3.60;2.40;;;;;;;8.04;42.67;94707.72;5029497;28;20217;-66
2023/04/27 04:00:53;;;;;;;5.13;2.40;;;;;;;8.04;42.40;94706.91;5025434;28;20240;-65
2023/04/27 04:03:19;;;;;;;4.63;2.60;;;;;;;8.06;42.20;94707.59;5024503;28;20193;-69
2023/04/27 04:05:45;;;;;;;5.60;2.83;;;;;;;7.99;42.45;94711.75;5019215;28;20221;-68
2023/04/27 04:08:12;;;;;;;5.43;2.73;;;;;;;7.98;42.74;94717.97;5030350;28;20317;-65
2023/04/27 04:10:38;;;;;;;6.30;2.60;;;;;;;8.03;42.19;94721.81;5031515;28;20221;-70
2023/04/27 04:13:03;;;;;;;3.57;2.40;;;;;;;8.10;42.08;94732.50;5027181;28;20221;-67
2023/04/27 04:15:28;;;;;;;6.97;2.80;;;;;;;8.29;41.76;94735.06;5037489;28;20198;-69
2023/04/27 04:17:54;;;;;;;6.33;2.80;;;;;;;8.16;41.84;94726.72;5027282;28;20226;-68
2023/04/27 04:20:20;;;;;;;6.17;2.60;;;;;;;8.11;41.29;94732.38;5026386;28;20224;-69
2023/04/27 04:22:45;;;;;;;4.30;2.60;;;;;;;8.17;41.34;94736.22;5026706;28;20229;-69
2023/04/27 04:25:11;;;;;;;6.77;3.10;;;;;;;8.06;41.91;94731.16;5024082;28;20230;-68
2023/04/27 04:27:37;;;;;;;4.10;2.93;;;;;;;8.17;42.08;94736.22;5029742;28;20206;-71
2023/04/27 04:30:05;;;;;;;5.53;2.93;;;;;;;8.27;41.67;94750.09;5023989;28;20325;-70
2023/04/27 04:32:30;;;;;;;4.90;2.87;;;;;;;8.22;41.77;94743.66;5027960;28;20281;-65
2023/04/27 04:34:56;;;;;;;4.33;2.90;;;;;;;8.34;41.78;94745.09;5027710;28;20319;-70
2023/04/27 04:37:22;;;;;;;4.67;2.50;;;;;;;8.30;41.54;94744.56;5032094;28;20236;-64
2023/04/27 04:39:47;;;;;;;6.60;2.80;;;;;;;8.23;41.59;94747.91;5030225;28;20194;-71
2023/04/27 04:42:13;;;;;;;6.80;2.67;;;;;;;8.37;41.40;94750.91;5021323;28;20319;-65
2023/04/27 04:44:38;;;;;;;6.87;2.80;;;;;;;8.55;40.69;94751.00;5026203;28;20218;-65
2023/04/27 04:47:05;;;;;;;6.33;3.00;;;;;;;8.22;41.49;94762.81;5030487;28;20240;-65
2023/04/27 04:49:31;;;;;;;6.53;3.10;;;;;;;8.38;41.25;94760.41;5031555;28;20241;-69
2023/04/27 04:51:56;;;;;;;4.50;3.37;;;;;;;8.34;41.11;94764.28;5026379;28;20222;-69
2023/04/27 04:54:22;;;;;;;5.63;3.37;;;;;;;8.57;40.96;94762.13;5026662;28;20190;-66
2023/04/27 04:56:47;;;;;;;6.93;2.90;;;;;;;8.50;40.95;94761.09;5021548;28;20218;-67
2023/04/27 04:59:12;;;;;;;8.10;3.53;;;;;;;8.50;41.10;94770.72;5030885;28;20226;-67
2023/04/27 05:01:38;;;;;;;5.63;3.50;;;;;;;8.60;41.02;94771.50;5029618;28;20241;-67
2023/04/27 05:04:04;;;;;;;6.20;3.13;;;;;;;8.71;40.79;94786.19;5020256;28;20225;-67
2023/04/27 05:06:29;;;;;;;4.03;2.80;;;;;;;8.79;40.95;94781.06;5022223;28;20226;-68
2023/04/27 05:08:55;;;;;;;5.30;2.73;;;;;;;8.94;40.12;94789.25;5027541;28;20222;-68
2023/04/27 05:11:21;;;;;;;7.13;3.07;;;;;;;8.87;40.62;94782.94;5021119;28;20236;-68
2023/04/27 05:13:46;;;;;;;5.30;3.27;;;;;;;9.08;40.25;94794.00;5032430;28;20249;-68
2023/04/27 05:16:12;;;;;;;6.30;2.97;;;;;;;8.97;40.33;94786.34;5022444;28;20222;-66
2023/04/27 05:18:37;;;;;;;6.60;3.50;;;;;;;9.11;40.04;94798.13;5030447;28;20189;-67
2023/04/27 05:21:03;;;;;;;11.43;3.67;;;;;;;8.79;40.51;94789.75;5021049;28;20221;-67
2023/04/27 05:23:28;;;;;;;6.93;3.13;;;;;;;8.55;41.06;94785.06;5029118;28;20229;-69
2023/04/27 05:25:54;;;;;;;6.83;3.23;;;;;;;8.82;40.48;94804.34;5027051;28;20253;-69
2023/04/27 05:28:19;;;;;;;6.43;3.27;;;;;;;8.36;41.17;94804.25;5022245;28;20304;-69
2023/04/27 05:30:45;;;;;;;6.57;3.33;;;;;;;8.52;41.37;94793.19;5025057;28;20210;-64
2023/04/27 05:33:10;;;;;;;6.77;3.30;;;;;;;8.18;41.85;94808.59;5025611;28;20208;-64
2023/04/27 05:35:35;;;;;;;7.13;3.23;;;;;;;8.16;42.10;94807.91;5022097;28;20230;-62
2023/04/27 05:38:01;;;;;;;6.40;3.17;;;;;;;8.26;42.13;94807.88;5025814;28;20275;-66
2023/04/27 05:40:27;;;;;;;7.50;3.20;;;;;;;8.41;41.50;94816.94;5028611;28;20225;-69
2023/04/27 05:42:52;;;;;;;6.70;3.37;;;;;;;8.58;41.20;94817.97;5027181;28;20280;-62
2023/04/27 05:45:18;;;;;;;4.33;3.00;;;;;;;8.50;41.11;94804.78;5022238;28;20269;-62
2023/04/27 05:47:44;;;;;;;7.03;2.97;;;;;;;8.57;41.14;94811.09;5020814;28;20225;-63
2023/04/27 05:50:10;;;;;;;5.03;3.00;;;;;;;8.47;41.46;94805.06;5029278;28;20317;-65
2023/04/27 05:52:35;;;;;;;4.17;3.00;;;;;;;8.43;41.64;94806.34;5019600;28;20230;-62
2023/04/27 05:55:01;;;;;;;8.73;3.10;;;;;;;8.43;41.27;94814.19;5025910;28;20221;-61
2023/04/27 05:57:26;;;;;;;8.07;3.20;;;;;;;8.30;42.10;94831.03;5029259;28;20215;-63
2023/04/27 05:59:52;;;;;;;7.10;2.80;;;;;;;8.39;41.64;94811.03;5019925;28;20233;-64
2023/04/27 06:02:18;;;;;;;6.10;3.37;;;;;;;8.39;42.06;94822.34;5032468;28;20228;-61
2023/04/27 06:04:44;;;;;;;10.50;3.23;;;;;;;8.48;41.58;94815.41;5027258;28;20382;-70
2023/04/27 06:07:14;;;;;;;8.53;3.33;;;;;;;8.59;41.71;94806.56;5023869;28;20322;-71
2023/04/27 06:09:40;;;;;;;8.03;3.70;;;;;;;8.48;42.04;94814.59;5019163;28;20201;-59
2023/04/27 06:12:07;;;;;;;8.00;3.50;;;;;;;8.60;41.81;94819.50;5022150;28;20618;-60
2023/04/27 06:14:34;;;;;;;7.67;3.60;;;;;;;8.78;41.42;94816.13;5014078;28;20225;-66
2023/04/27 06:17:00;;;;;;;7.17;3.30;;;;;;;8.76;42.02;94826.72;5028501;28;20227;-66
2023/04/27 06:19:26;;;;;;;5.93;3.40;;;;;;;8.92;41.35;94831.34;5028050;28;20300;-64
2023/04/27 06:21:53;;;;;;;6.37;3.70;;;;;;;8.99;41.07;94821.13;5029282;28;20202;-63
2023/04/27 06:24:18;;;;;;;5.27;3.47;;;;;;;9.02;41.05;94815.56;5034989;28;20196;-65
2023/04/27 06:26:44;;;;;;;7.67;3.27;;;;;;;8.99;41.10;94808.00;5025688;28;20225;-69
2023/04/27 06:29:09;;;;;;;6.90;3.63;;;;;;;9.08;41.31;94809.72;5027022;28;20221;-67
2023/04/27 06:31:35;;;;;;;6.43;3.47;;;;;;;9.22;40.93;94814.50;5018300;28;20228;-65
2023/04/27 06:34:01;;;;;;;4.30;3.10;;;;;;;9.23;40.77;94813.50;5029282;28;20634;-68
2023/04/27 06:36:27;;;;;;;5.17;3.40;;;;;;;9.28;40.81;94808.63;5023644;28;20646;-70
2023/04/27 06:38:56;;;;;;;5.80;3.43;;;;;;;9.15;40.83;94808.19;5026510;28;20243;-68
2023/04/27 06:41:23;;;;;;;4.63;3.40;;;;;;;9.21;40.82;94812.81;5046803;28;20693;-73
2023/04/27 06:43:49;;;;;;;6.37;3.87;;;;;;;9.33;40.89;94812.59;5023064;28;20452;-70
2023/04/27 06:46:14;;;;;;;5.13;3.20;;;;;;;9.21;41.27;94804.94;5023467;28;20263;-64
2023/04/27 06:48:40;;;;;;;4.67;3.03;;;;;;;9.28;40.67;94811.25;5025045;28;20237;-66
2023/04/27 06:51:05;;;;;;;4.47;3.30;;;;;;;9.65;40.30;94810.31;5026692;28;20261;-64
2023/04/27 06:53:31;;;;;;;4.77;2.80;;;;;;;9.58;40.14;94797.91;5044630;28;20219;-70
2023/04/27 06:55:57;;;;;;;5.03;3.10;;;;;;;9.85;39.53;94802.25;5043112;28;20287;-66
2023/04/27 06:58:22;;;;;;;5.50;2.53;;;;;;;10.11;38.98;94797.03;5033782;28;20222;-66
2023/04/27 07:00:48;;;;;;;6.00;2.90;;;;;;;10.09;39.37;94794.53;5032015;28;20241;-65
2023/04/27 07:03:13;;;;;;;6.37;3.13;;;;;;;10.18;39.41;94784.88;5031497;28;20221;-70
2023/04/27 07:05:39;;;;;;;5.17;2.87;;;;;;;10.40;39.24;94806.41;5029580;28;20221;-71
2023/04/27 07:08:05;;;;;;;5.30;2.90;;;;;;;10.45;38.13;94794.47;5023150;28;20245;-64
2023/04/27 07:10:30;;;;;;;6.00;3.70;;;;;;;10.35;38.42;94791.13;5026898;28;20223;-65
2023/04/27 07:12:56;;;;;;;4.97;3.13;;;;;;;10.57;37.87;94790.56;5045160;28;20201;-66
2023/04/27 07:15:22;;;;;;;8.20;3.23;;;;;;;10.24;38.42;94784.28;5026880;28;20570;-69
2023/04/27 07:17:52;;;;;;;6.43;2.97;;;;;;;10.27;38.25;94810.28;5038001;28;20217;-71
2023/04/27 07:20:18;;;;;;;4.60;3.20;;;;;;;10.32;37.97;94796.69;5023468;28;20300;-67
2023/04/27 07:22:44;;;;;;;6.23;2.90;;;;;;;10.57;36.99;94793.19;5032850;28;20749;-66
2023/04/27 07:25:10;;;;;;;4.90;3.00;;;;;;;10.48;37.04;94780.19;5020698;28;20231;-66
2023/04/27 07:27:35;;;;;;;5.13;3.30;;;;;;;10.52;37.88;94790.22;5033891;28;20213;-68
2023/04/27 07:30:01;;;;;;;7.00;3.00;;;;;;;10.65;37.40;94786.34;5026799;28;20221;-70
2023/04/27 07:32:26;;;;;;;4.53;3.00;;;;;;;10.42;37.64;94784.25;5024655;28;20222;-68
2023/04/27 07:34:54;;;;;;;4.47;2.87;;;;;;;10.68;37.45;94776.31;5029157;28;20280;-67
2023/04/27 07:37:20;;;;;;;4.80;2.90;;;;;;;10.66;37.56;94788.78;5040031;28;20241;-68
2023/04/27 07:39:48;;;;;;;8.23;3.10;;;;;;;10.83;36.27;94781.81;5029576;28;20190;-66
2023/04/27 07:42:14;;;;;;;7.87;3.10;;;;;;;10.90;35.86;94781.97;5027595;28;20193;-68
2023/04/27 07:44:41;;;;;;;3.60;2.43;;;;;;;10.81;35.98;94787.22;5035197;28;20302;-62
2023/04/27 07:47:07;;;;;;;4.97;2.60;;;;;;;10.84;36.04;94785.25;5032483;28;20230;-67
2023/04/27 07:49:33;;;;;;;6.23;3.50;;;;;;;11.00;35.31;94775.59;5043186;28;20237;-64
2023/04/27 07:51:59;;;;;;;8.63;3.93;;;;;;;10.95;35.53;94777.88;5024714;28;20245;-68
2023/04/27 07:54:24;;;;;;;5.47;2.87;;;;;;;11.06;34.99;94778.56;5033902;28;20212;-68
2023/04/27 07:56:50;;;;;;;8.77;2.77;;;;;;;11.14;34.77;94781.22;5028986;28;20241;-67
2023/04/27 07:59:16;;;;;;;4.17;2.90;;;;;;;11.24;34.33;94790.63;5024187;28;20291;-61
2023/04/27 08:01:41;;;;;;;3.80;2.37;;;;;;;11.26;34.57;94786.03;5033098;28;20235;-69
2023/04/27 08:04:07;;;;;;;4.20;2.90;;;;;;;11.10;34.87;94785.19;5033154;28;20304;-70
2023/04/27 08:06:32;;;;;;;7.17;2.60;;;;;;;11.31;34.64;94790.00;5030637;28;20245;-68
2023/04/27 08:08:59;;;;;;;6.03;2.80;;;;;;;11.28;34.46;94791.16;5022953;28;20287;-67
2023/04/27 08:11:26;;;;;;;6.47;3.53;;;;;;;11.60;33.60;94776.34;5046711;28;20213;-66
2023/04/27 08:13:51;;;;;;;4.53;3.07;;;;;;;11.33;34.59;94778.31;5031561;28;20268;-63
2023/04/27 08:16:16;;;;;;;6.88;3.03;;;;;;;11.33;34.95;94794.09;5030327;28;20301;-65
2023/04/27 08:18:43;;;;;;;5.68;2.72;;;;;;;11.47;34.95;94777.69;5027364;28;20190;-62
2023/04/27 08:21:08;;;;;;;5.00;2.88;;;;;;;11.72;34.90;94784.78;5045049;28;20186;-70
2023/04/27 08:23:35;;;;;;;3.40;2.45;;;;;;;11.83;33.91;94781.81;5029144;28;20217;-69
2023/04/27 08:26:02;;;;;;;5.67;2.40;;;;;;;11.99;33.38;94781.81;5021587;28;20218;-69
2023/04/27 08:28:27;;;;;;;5.22;2.83;;;;;;;12.08;33.53;94780.84;5031703;28;20229;-63
2023/04/27 08:30:53;;;;;;;6.10;2.70;;;;;;;12.00;33.63;94772.09;5025668;28;20688;-63
2023/04/27 08:33:18;;;;;;;5.75;2.63;;;;;;;11.98;33.82;94774.91;5029288;28;20182;-66
2023/04/27 08:35:44;;;;;;;5.78;3.47;;;;;;;12.11;33.72;94779.69;5026423;28;20224;-65
2023/04/27 08:38:09;;;;;;;3.78;2.78;;;;;;;12.25;33.98;94776.38;5023887;28;20237;-67
2023/04/27 08:40:35;;;;;;;4.95;2.72;;;;;;;12.45;33.13;94771.53;5023554;28;20221;-67
2023/04/27 08:43:00;;;;;;;6.38;2.90;;;;;;;12.04;33.95;94779.53;5038010;28;20228;-67
2023/04/27 08:45:27;;;;;;;2.88;2.10;;;;;;;12.12;33.60;94776.88;5045123;28;20180;-63
2023/04/27 08:47:53;;;;;;;3.92;2.40;;;;;;;12.29;33.44;94780.28;5043069;28;20343;-64
2023/04/27 08:50:19;;;;;;;4.53;2.38;;;;;;;12.40;34.80;94773.03;5033378;28;20348;-65
2023/04/27 08:52:45;;;;;;;5.63;2.97;;;;;;;12.40;33.57;94783.56;5026027;28;20222;-64
2023/04/27 08:55:11;;;;;;;3.97;2.50;;;;;;;12.41;33.17;94780.78;5031298;28;20230;-65
2023/04/27 08:57:37;;;;;;;5.20;2.80;;;;;;;12.52;33.46;94782.22;5014526;28;20202;-67
2023/04/27 09:00:11;;;;;;;4.22;2.58;;;;;;;12.67;33.22;94787.59;5027632;28;20259;-68
2023/04/27 09:02:36;;;;;;;6.72;3.20;;;;;;;12.67;32.65;94784.97;5024286;28;20259;-71
2023/04/27 09:05:03;;;;;;;4.40;2.80;;;;;;;12.38;33.87;94785.56;5033061;28;20229;-72
2023/04/27 09:07:28;;;;;;;4.63;2.50;;;;;;;12.42;33.58;94778.97;5032257;28;20229;-67
2023/04/27 09:10:04;;;;;;;4.47;2.38;;;;;;;12.51;33.15;94777.94;5029421;28;20194;-68
2023/04/27 09:12:32;;;;;;;6.32;3.20;;;;;;;12.72;33.11;94787.94;5019580;28;20242;-65
2023/04/27 09:15:01;;;;;;;5.57;2.42;;;;;;;12.79;32.66;94781.78;5030978;28;20228;-70
2023/04/27 09:17:29;;;;;;;3.13;2.25;;;;;;;12.80;32.31;94778.19;5038408;28;20293;-61
2023/04/27 09:20:07;;;;;;;5.03;2.25;;;;;;;12.68;32.47;94773.44;5044107;28;20228;-69
2023/04/27 09:22:43;;;;;;;5.45;2.63;;;;;;;12.76;32.45;94782.16;5022604;28;20263;-67
2023/04/27 09:25:08;;;;;;;3.38;2.60;;;;;;;12.78;32.65;94769.63;5018996;28;20221;-67
2023/04/27 09:27:36;;;;;;;5.03;2.78;;;;;;;12.92;32.19;94773.34;5040060;28;20264;-65
2023/04/27 09:30:12;;;;;;;6.15;2.45;;;;;;;13.15;32.02;94778.69;5026965;28;20241;-68
2023/04/27 09:32:37;;;;;;;4.65;2.22;;;;;;;12.95;31.84;94767.72;5027438;28;20217;-73
2023/04/27 09:35:15;;;;;;;4.45;2.55;;;;;;;13.00;32.17;94761.94;5031121;28;20221;-74
2023/04/27 09:37:41;;;;;;;4.72;2.38;;;;;;;12.96;32.37;94755.34;5011675;28;20213;-69
2023/04/27 09:40:07;;;;;;;5.72;2.05;;;;;;;13.03;32.48;94758.94;5024619;28;20350;-69
2023/04/27 09:42:32;;;;;;;3.40;2.47;;;;;;;13.06;32.74;94763.03;5038175;28;20190;-73
2023/04/27 09:44:59;;;;;;;4.32;2.60;;;;;;;13.13;32.20;94748.16;5030482;28;20218;-64
2023/04/27 09:47:27;;;;;;;2.70;2.30;;;;;;;13.26;31.92;94753.72;5029806;28;20226;-64
2023/04/27 09:49:52;;;;;;;6.35;2.53;;;;;;;13.27;31.63;94747.44;5032605;28;20225;-66
2023/04/27 09:52:18;;;;;;;4.03;2.60;;;;;;;13.56;31.57;94744.13;5023545;28;20218;-68
2023/04/27 09:54:44;;;;;;;4.97;2.58;;;;;;;13.62;29.93;94738.13;5045569;28;20217;-66
2023/04/27 09:57:32;;;;;;;4.45;2.20;;;;;;;13.46;30.76;94743.53;5035424;28;20215;-66
2023/04/27 10:00:35;;;;;;;5.78;1.98;;;;;;;13.43;30.97;94739.41;5019204;28;20275;-74
2023/04/27 10:03:41;;;;;;;2.47;1.90;;;;;;;13.71;30.65;94730.13;5024702;28;20221;-68
2023/04/27 10:06:19;;;;;;;2.70;2.13;;;;;;;14.09;30.30;94730.94;4971763;28;20223;-74
2023/04/27 10:08:45;;;;;;;7.30;2.33;;;;;;;14.06;30.03;94731.28;4966882;28;20226;-74
2023/04/27 10:11:15;;;;;;;4.38;2.10;;;;;;;14.04;29.54;94735.94;4974017;28;20236;-69
2023/04/27 10:13:53;;;;;;;4.05;1.92;;;;;;;14.08;29.28;94735.38;4959116;28;20628;-66
2023/04/27 10:16:20;;;;;;;3.47;1.90;;;;;;;13.94;29.51;94735.38;4964175;28;20279;-69
2023/04/27 10:18:54;;;;;;;3.85;2.40;;;;;;;14.13;29.64;94740.97;4973618;28;20196;-69
2023/04/27 10:21:20;;;;;;;4.75;2.50;;;;;;;14.00;29.55;94735.47;4956646;28;20226;-68
2023/04/27 10:23:48;;;;;;;2.97;1.85;;;;;;;14.11;29.02;94744.78;4955576;28;20220;-68
2023/04/27 10:26:35;;;;;;;4.70;2.30;;;;;;;13.96;29.72;94743.97;4976050;28;20299;-67
2023/04/27 10:29:08;;;;;;;2.63;2.03;;;;;;;13.79;29.50;94727.41;4958035;28;20247;-67
2023/04/27 10:31:33;;;;;;;3.28;2.17;;;;;;;13.80;30.48;94732.53;4958495;28;20223;-67
2023/04/27 10:34:09;;;;;;;4.43;2.67;;;;;;;13.77;29.89;94740.00;4960987;28;20263;-67
2023/04/27 10:36:40;;;;;;;3.63;2.47;;;;;;;13.87;29.09;94737.91;4972562;28;20208;-65
2023/04/27 10:39:21;;;;;;;4.47;2.22;;;;;;;14.08;28.63;94734.56;4958947;28;20247;-71
2023/04/27 10:41:55;;;;;;;3.40;1.92;;;;;;;14.31;28.38;94737.97;4990392;28;20283;-68
2023/04/27 10:44:28;;;;;;;2.78;2.00;;;;;;;14.32;27.84;94728.22;5022749;28;20217;-69
2023/04/27 10:46:55;;;;;;;4.40;2.30;;;;;;;14.40;28.38;94728.13;5035512;28;20221;-68
2023/04/27 10:49:22;;;;;;;5.03;2.13;;;;;;;14.35;29.02;94727.84;5029081;28;20217;-69
2023/04/27 10:51:50;;;;;;;3.35;2.05;;;;;;;14.43;28.72;94730.41;5044649;28;20217;-67
2023/04/27 10:54:16;;;;;;;4.13;2.38;;;;;;;14.28;28.46;94727.78;5032540;28;20239;-67
2023/04/27 10:56:42;;;;;;;3.63;2.00;;;;;;;14.43;27.89;94734.88;5033612;28;20221;-69
2023/04/27 10:59:08;;;;;;;6.18;2.08;;;;;;;14.32;28.25;94723.75;5022320;28;20233;-67
2023/04/27 11:01:34;;;;;;;3.78;1.90;;;;;;;14.64;27.92;94719.13;5019639;28;20237;-70
2023/04/27 11:04:01;;;;;;;2.03;1.83;;;;;;;14.93;28.07;94720.91;5010413;28;20250;-70
2023/04/27 11:06:27;;;;;;;3.28;1.73;;;;;;;15.20;27.42;94719.38;5016051;28;20202;-67
2023/04/27 11:08:53;;;;;;;5.30;2.00;;;;;;;15.20;27.83;94713.25;5010096;28;20219;-64
2023/04/27 11:11:19;;;;;;;3.13;2.05;;;;;;;15.20;26.59;94715.91;5005819;28;20646;-63
2023/04/27 11:13:47;;;;;;;2.63;1.88;;;;;;;14.91;26.47;94719.44;5013736;28;20210;-66
2023/04/27 11:16:14;;;;;;;2.20;1.75;;;;;;;14.88;26.63;94717.19;5027326;28;20222;-64
2023/04/27 11:18:40;;;;;;;3.92;1.80;;;;;;;14.36;27.06;94710.19;5015552;28;20247;-64
2023/04/27 11:21:08;;;;;;;3.67;1.70;;;;;;;14.43;27.33;94730.41;5013762;28;20266;-65
2023/04/27 11:23:37;;;;;;;3.78;2.10;;;;;;;14.67;26.84;94729.34;5013733;28;20716;-64
2023/04/27 11:26:13;;;;;;;3.17;2.17;;;;;;;14.68;27.37;94730.19;5006777;28;20245;-63
2023/04/27 11:28:40;;;;;;;5.15;2.00;;;;;;;14.52;27.53;94724.06;5017836;28;20268;-63
2023/04/27 11:31:06;;;;;;;4.07;2.17;;;;;;;14.68;27.63;94736.28;5020769;28;20305;-63
2023/04/27 11:33:32;;;;;;;6.15;2.30;;;;;;;14.76;27.92;94730.06;5010341;28;20197;-63
2023/04/27 11:35:57;;;;;;;2.97;2.30;;;;;;;14.90;27.97;94736.34;5029090;28;20690;-66